createdAt,value
2023-05-06T00:00:04.296Z,14.39
2023-05-06T00:02:32.357Z,14.39
2023-05-06T00:05:00.940Z,14.40
2023-05-06T00:07:28.810Z,14.43
2023-05-06T00:09:58.184Z,14.44
2023-05-06T00:12:26.036Z,14.48
2023-05-06T00:14:53.875Z,14.51
2023-05-06T00:17:21.713Z,14.53
2023-05-06T00:19:49.662Z,14.55
2023-05-06T00:22:17.439Z,14.51
2023-05-06T00:24:45.322Z,14.49
2023-05-06T00:27:14.565Z,14.48
2023-05-06T00:29:42.450Z,14.44
2023-05-06T00:32:10.280Z,14.42
2023-05-06T00:34:38.209Z,14.44
2023-05-06T00:37:06.188Z,14.43
2023-05-06T00:39:34.568Z,14.42
2023-05-06T00:42:02.795Z,14.42
2023-05-06T00:44:32.901Z,14.41
2023-05-06T00:47:01.867Z,14.38
2023-05-06T00:49:31.036Z,14.37
2023-05-06T00:52:01.274Z,14.39
2023-05-06T00:54:29.826Z,14.37
2023-05-06T00:56:57.893Z,14.33
2023-05-06T00:59:25.724Z,14.30
2023-05-06T01:01:55.000Z,14.26
2023-05-06T01:04:24.105Z,14.22
2023-05-06T01:06:59.654Z,14.18
2023-05-06T01:09:33.942Z,14.12
2023-05-06T01:12:11.114Z,14.03
2023-05-06T01:14:46.522Z,13.99
2023-05-06T01:17:19.724Z,13.98
2023-05-06T01:19:50.193Z,14.00
2023-05-06T01:22:19.546Z,14.00
2023-05-06T01:24:48.756Z,13.95
2023-05-06T01:27:18.328Z,13.94
2023-05-06T01:29:48.321Z,13.93
2023-05-06T01:32:32.334Z,13.90
2023-05-06T01:35:11.892Z,13.89
2023-05-06T01:37:46.091Z,13.85
2023-05-06T01:40:17.339Z,13.79
2023-05-06T01:42:48.755Z,13.77
2023-05-06T01:45:17.362Z,13.68
2023-05-06T01:47:46.870Z,13.58
2023-05-06T01:50:15.232Z,13.55
2023-05-06T01:52:43.030Z,13.51
2023-05-06T01:55:11.392Z,13.50
2023-05-06T01:57:40.842Z,13.53
2023-05-06T02:00:10.331Z,13.49
2023-05-06T02:02:38.278Z,13.49
2023-05-06T02:05:07.284Z,13.50
2023-05-06T02:07:35.270Z,13.49
2023-05-06T02:10:03.134Z,13.49
2023-05-06T02:12:30.946Z,13.47
2023-05-06T02:15:00.113Z,13.45
2023-05-06T02:17:27.995Z,13.40
2023-05-06T02:19:55.860Z,13.39
2023-05-06T02:22:23.727Z,13.40
2023-05-06T02:24:51.564Z,13.41
2023-05-06T02:27:19.378Z,13.41
2023-05-06T02:29:47.476Z,13.40
2023-05-06T02:32:16.634Z,13.41
2023-05-06T02:34:44.482Z,13.35
2023-05-06T02:37:12.374Z,13.32
2023-05-06T02:39:40.225Z,13.29
2023-05-06T02:42:08.023Z,13.26
2023-05-06T02:44:35.856Z,13.22
2023-05-06T02:47:03.592Z,13.21
2023-05-06T02:49:32.887Z,13.19
2023-05-06T02:52:00.610Z,13.16
2023-05-06T02:54:28.397Z,13.13
2023-05-06T02:56:56.250Z,13.10
2023-05-06T02:59:24.703Z,13.09
2023-05-06T03:01:52.514Z,13.07
2023-05-06T03:04:21.252Z,13.01
2023-05-06T03:06:50.743Z,12.93
2023-05-06T03:09:18.503Z,12.89
2023-05-06T03:11:46.290Z,12.87
2023-05-06T03:14:14.084Z,12.81
2023-05-06T03:16:41.953Z,12.79
2023-05-06T03:19:09.855Z,12.74
2023-05-06T03:21:37.688Z,12.74
2023-05-06T03:24:07.485Z,12.73
2023-05-06T03:26:35.308Z,12.71
2023-05-06T03:29:03.088Z,12.71
2023-05-06T03:31:30.998Z,12.70
2023-05-06T03:33:58.931Z,12.67
2023-05-06T03:36:27.958Z,12.66
2023-05-06T03:38:55.772Z,12.66
2023-05-06T03:41:25.819Z,12.64
2023-05-06T03:43:55.617Z,12.64
2023-05-06T03:46:23.482Z,12.66
2023-05-06T03:48:51.293Z,12.66
2023-05-06T03:51:19.236Z,12.64
2023-05-06T03:53:47.079Z,12.64
2023-05-06T03:56:14.762Z,12.62
2023-05-06T03:58:44.437Z,12.57
2023-05-06T04:01:12.231Z,12.47
2023-05-06T04:03:40.151Z,12.40
2023-05-06T04:06:08.101Z,12.35
2023-05-06T04:08:35.964Z,12.33
2023-05-06T04:11:05.885Z,12.33
2023-05-06T04:13:33.859Z,12.27
2023-05-06T04:16:04.046Z,12.24
2023-05-06T04:18:32.829Z,12.25
2023-05-06T04:21:01.014Z,12.24
2023-05-06T04:23:28.957Z,12.22
2023-05-06T04:25:58.075Z,12.24
2023-05-06T04:28:25.979Z,12.28
2023-05-06T04:30:53.930Z,12.31
2023-05-06T04:33:25.086Z,12.35
2023-05-06T04:35:54.829Z,12.39
2023-05-06T04:38:25.709Z,12.42
2023-05-06T04:40:53.959Z,12.46
2023-05-06T04:43:21.677Z,12.54
2023-05-06T04:45:50.263Z,12.57
2023-05-06T04:48:18.797Z,12.59
2023-05-06T04:50:47.964Z,12.62
2023-05-06T04:53:16.387Z,12.63
2023-05-06T04:55:44.614Z,12.66
2023-05-06T04:58:12.438Z,12.67
2023-05-06T05:00:40.734Z,12.70
2023-05-06T05:03:08.616Z,12.77
2023-05-06T05:05:36.542Z,12.81
2023-05-06T05:08:06.313Z,12.88
2023-05-06T05:10:34.161Z,12.96
2023-05-06T05:13:02.019Z,13.04
2023-05-06T05:15:30.098Z,13.09
2023-05-06T05:17:57.984Z,13.15
2023-05-06T05:20:25.750Z,13.23
2023-05-06T05:22:53.494Z,13.30
2023-05-06T05:25:22.672Z,13.38
2023-05-06T05:27:50.456Z,13.45
2023-05-06T05:30:18.419Z,13.52
2023-05-06T05:32:46.397Z,13.59
2023-05-06T05:35:15.692Z,13.66
2023-05-06T05:37:43.599Z,13.73
2023-05-06T05:40:11.803Z,13.79
2023-05-06T05:42:41.177Z,13.82
2023-05-06T05:45:10.679Z,13.90
2023-05-06T05:47:38.673Z,14.00
2023-05-06T05:50:07.702Z,14.09
2023-05-06T05:52:35.501Z,14.13
2023-05-06T05:55:03.250Z,14.18
2023-05-06T05:57:31.100Z,14.21
2023-05-06T06:00:00.373Z,14.23
2023-05-06T06:02:28.234Z,14.28
2023-05-06T06:04:56.230Z,14.33
2023-05-06T06:07:24.258Z,14.38
2023-05-06T06:09:52.061Z,14.47
2023-05-06T06:12:19.829Z,14.53
2023-05-06T06:14:48.528Z,14.58
2023-05-06T06:17:17.980Z,14.63
2023-05-06T06:19:47.373Z,14.73
2023-05-06T06:22:15.184Z,14.80
2023-05-06T06:24:42.959Z,14.90
2023-05-06T06:27:11.022Z,14.99
2023-05-06T06:29:38.833Z,15.04
2023-05-06T06:32:07.663Z,15.11
2023-05-06T06:34:36.935Z,15.18
2023-05-06T06:37:06.238Z,15.26
2023-05-06T06:39:35.911Z,15.37
2023-05-06T06:42:04.355Z,15.45
2023-05-06T06:44:32.135Z,15.54
2023-05-06T06:46:59.901Z,15.60
2023-05-06T06:49:28.478Z,15.65
2023-05-06T06:51:57.824Z,15.68
2023-05-06T06:54:25.807Z,15.73
2023-05-06T06:56:55.852Z,15.78
2023-05-06T06:59:23.512Z,15.83
2023-05-06T07:01:52.902Z,15.92
2023-05-06T07:04:20.695Z,16.00
2023-05-06T07:06:48.385Z,16.12
2023-05-06T07:09:17.511Z,16.26
2023-05-06T07:11:45.192Z,16.39
2023-05-06T07:14:13.070Z,16.47
2023-05-06T07:16:40.884Z,16.54
2023-05-06T07:19:08.780Z,16.61
2023-05-06T07:21:36.544Z,16.67
2023-05-06T07:24:04.492Z,16.74
2023-05-06T07:26:36.579Z,16.86
2023-05-06T07:29:05.629Z,16.98
2023-05-06T07:31:33.583Z,17.07
2023-05-06T07:34:01.904Z,17.20
2023-05-06T07:36:30.934Z,17.26
2023-05-06T07:38:58.694Z,17.37
2023-05-06T07:41:27.151Z,17.45
2023-05-06T07:43:56.284Z,17.55
2023-05-06T07:46:24.082Z,17.61
2023-05-06T07:48:51.803Z,17.66
2023-05-06T07:51:19.550Z,17.71
2023-05-06T07:53:47.276Z,17.86
2023-05-06T07:56:15.063Z,17.98
2023-05-06T07:58:42.834Z,18.16
2023-05-06T08:01:12.077Z,18.28
2023-05-06T08:03:39.972Z,18.41
2023-05-06T08:06:08.472Z,18.53
2023-05-06T08:08:36.208Z,18.68
2023-05-06T08:11:03.898Z,18.79
2023-05-06T08:13:33.468Z,18.97
2023-05-06T08:16:02.320Z,19.13
2023-05-06T08:18:31.869Z,19.28
2023-05-06T08:20:59.825Z,19.45
2023-05-06T08:23:27.718Z,19.63
2023-05-06T08:25:55.539Z,19.78
2023-05-06T08:28:24.653Z,19.96
2023-05-06T08:30:53.052Z,20.09
2023-05-06T08:33:21.077Z,20.26
2023-05-06T08:35:50.934Z,20.37
2023-05-06T08:38:18.809Z,20.46
2023-05-06T08:40:46.720Z,20.56
2023-05-06T08:43:15.957Z,20.57
2023-05-06T08:45:43.933Z,20.50
2023-05-06T08:48:11.967Z,20.49
2023-05-06T08:50:43.170Z,20.46
2023-05-06T08:53:13.846Z,20.46
2023-05-06T08:55:42.453Z,20.60
2023-05-06T08:58:12.773Z,20.66
2023-05-06T09:00:40.845Z,20.77
2023-05-06T09:03:08.724Z,20.81
2023-05-06T09:05:36.975Z,20.88
2023-05-06T09:08:04.913Z,21.00
2023-05-06T09:10:39.116Z,21.06
2023-05-06T09:13:06.973Z,21.09
2023-05-06T09:15:41.019Z,21.25
2023-05-06T09:18:09.169Z,21.35
2023-05-06T09:20:41.466Z,21.33
2023-05-06T09:23:09.874Z,21.34
2023-05-06T09:25:39.520Z,21.38
2023-05-06T09:28:08.944Z,21.48
2023-05-06T09:30:40.853Z,21.61
2023-05-06T09:33:09.190Z,21.68
2023-05-06T09:35:39.065Z,21.82
2023-05-06T09:38:07.534Z,21.92
2023-05-06T09:40:36.130Z,22.08
2023-05-06T09:43:06.157Z,22.21
2023-05-06T09:45:34.581Z,22.37
2023-05-06T09:48:02.528Z,22.39
2023-05-06T09:50:30.593Z,22.52
2023-05-06T09:53:03.713Z,22.59
2023-05-06T09:55:32.100Z,22.68
2023-05-06T09:58:01.922Z,22.84
2023-05-06T10:00:32.531Z,22.96
2023-05-06T10:03:00.748Z,23.05
2023-05-06T10:05:30.084Z,23.11
2023-05-06T10:07:58.420Z,23.09
2023-05-06T10:10:28.314Z,23.08
2023-05-06T10:12:56.814Z,23.23
2023-05-06T10:15:27.092Z,23.44
2023-05-06T10:17:56.886Z,23.56
2023-05-06T10:20:27.701Z,23.59
2023-05-06T10:23:04.604Z,23.61
2023-05-06T10:25:37.983Z,23.77
2023-05-06T10:28:09.232Z,23.92
2023-05-06T10:30:42.116Z,24.02
2023-05-06T10:33:12.886Z,24.11
2023-05-06T10:35:49.320Z,24.31
2023-05-06T10:38:24.667Z,24.48
2023-05-06T10:40:53.466Z,24.58
2023-05-06T10:43:25.747Z,24.70
2023-05-06T10:46:06.858Z,24.78
2023-05-06T10:48:37.746Z,24.78
2023-05-06T10:51:25.934Z,24.71
2023-05-06T10:54:02.400Z,24.68
2023-05-06T10:56:32.007Z,24.91
2023-05-06T10:59:08.202Z,24.89
2023-05-06T11:01:37.154Z,25.15
2023-05-06T11:04:12.505Z,25.22
2023-05-06T11:06:42.333Z,25.13
2023-05-06T11:09:17.965Z,24.97
2023-05-06T11:11:51.003Z,24.78
2023-05-06T11:14:30.751Z,24.66
2023-05-06T11:16:59.848Z,24.58
2023-05-06T11:19:31.207Z,24.51
2023-05-06T11:22:00.193Z,24.36
2023-05-06T11:24:29.241Z,24.27
2023-05-06T11:26:59.403Z,24.12
2023-05-06T11:29:27.771Z,23.99
2023-05-06T11:31:56.461Z,23.88
2023-05-06T11:34:30.443Z,23.72
2023-05-06T11:37:03.497Z,23.59
2023-05-06T11:39:38.714Z,23.51
2023-05-06T11:42:08.585Z,23.46
2023-05-06T11:44:37.881Z,23.39
2023-05-06T11:47:07.479Z,23.37
2023-05-06T11:49:41.206Z,23.40
2023-05-06T11:52:09.815Z,23.36
2023-05-06T11:54:40.274Z,23.34
2023-05-06T11:57:08.278Z,23.40
2023-05-06T11:59:38.378Z,23.36
2023-05-06T12:02:07.502Z,23.34
2023-05-06T12:04:40.576Z,23.27
2023-05-06T12:07:08.991Z,23.24
2023-05-06T12:09:37.691Z,23.19
2023-05-06T12:12:06.573Z,23.17
2023-05-06T12:14:35.296Z,23.13
2023-05-06T12:17:03.557Z,23.09
2023-05-06T12:19:31.922Z,23.11
2023-05-06T12:22:19.533Z,23.16
2023-05-06T12:24:47.933Z,23.09
2023-05-06T12:27:15.787Z,23.05
2023-05-06T12:29:53.788Z,23.05
2023-05-06T12:32:21.943Z,23.13
2023-05-06T12:34:49.782Z,23.15
2023-05-06T12:37:27.067Z,23.17
2023-05-06T12:39:58.295Z,23.14
2023-05-06T12:42:27.032Z,23.09
2023-05-06T12:44:54.736Z,23.11
2023-05-06T12:47:23.775Z,23.10
2023-05-06T12:49:52.889Z,23.11
2023-05-06T12:52:21.844Z,23.11
2023-05-06T12:54:52.819Z,23.12
2023-05-06T12:57:21.392Z,23.23
2023-05-06T12:59:49.936Z,23.35
2023-05-06T13:02:17.957Z,23.42
2023-05-06T13:04:47.201Z,23.49
2023-05-06T13:07:15.093Z,23.59
2023-05-06T13:09:44.546Z,23.69
2023-05-06T13:12:13.897Z,23.76
2023-05-06T13:14:41.632Z,23.88
2023-05-06T13:17:09.721Z,23.96
2023-05-06T13:19:37.747Z,24.05
2023-05-06T13:22:05.560Z,24.14
2023-05-06T13:24:33.396Z,24.20
2023-05-06T13:27:01.568Z,24.20
2023-05-06T13:29:30.903Z,24.23
2023-05-06T13:31:59.176Z,24.29
2023-05-06T13:34:27.208Z,24.26
2023-05-06T13:36:56.599Z,24.34
2023-05-06T13:39:25.058Z,24.43
2023-05-06T13:41:54.149Z,24.31
2023-05-06T13:44:22.596Z,24.28
2023-05-06T13:46:52.526Z,24.31
2023-05-06T13:49:20.405Z,24.38
2023-05-06T13:51:48.347Z,24.41
2023-05-06T13:54:16.162Z,24.34
2023-05-06T13:56:43.965Z,24.32
2023-05-06T13:59:14.036Z,24.28
2023-05-06T14:01:42.629Z,24.17
2023-05-06T14:04:12.339Z,24.22
2023-05-06T14:06:40.620Z,24.26
2023-05-06T14:09:08.592Z,24.27
2023-05-06T14:11:36.325Z,24.29
2023-05-06T14:14:04.433Z,24.30
2023-05-06T14:16:32.254Z,24.34
2023-05-06T14:19:00.514Z,24.42
2023-05-06T14:21:29.678Z,24.50
2023-05-06T14:23:57.510Z,24.58
2023-05-06T14:26:25.733Z,24.66
2023-05-06T14:28:53.488Z,24.78
2023-05-06T14:31:21.244Z,24.91
2023-05-06T14:33:49.070Z,24.90
2023-05-06T14:36:19.516Z,24.92
2023-05-06T14:38:48.702Z,24.98
2023-05-06T14:41:16.569Z,25.13
2023-05-06T14:43:44.340Z,25.17
2023-05-06T14:46:14.392Z,25.17
2023-05-06T14:48:42.635Z,25.22
2023-05-06T14:51:10.351Z,25.21
2023-05-06T14:53:38.030Z,25.20
2023-05-06T14:56:09.027Z,25.22
2023-05-06T14:58:37.038Z,25.25
2023-05-06T15:01:04.927Z,25.16
2023-05-06T15:03:32.864Z,25.05
2023-05-06T15:06:00.867Z,24.85
2023-05-06T15:08:28.718Z,24.69
2023-05-06T15:10:56.526Z,24.44
2023-05-06T15:13:25.802Z,24.27
2023-05-06T15:15:53.536Z,24.05
2023-05-06T15:18:21.219Z,23.88
2023-05-06T15:20:48.884Z,23.74
2023-05-06T15:23:17.822Z,23.63
2023-05-06T15:25:45.570Z,23.50
2023-05-06T15:28:13.424Z,23.40
2023-05-06T15:30:42.613Z,23.36
2023-05-06T15:33:10.394Z,23.31
2023-05-06T15:35:38.203Z,23.26
2023-05-06T15:38:06.093Z,23.20
2023-05-06T15:40:33.867Z,23.10
2023-05-06T15:43:01.660Z,23.02
2023-05-06T15:45:29.408Z,22.94
2023-05-06T15:47:58.667Z,22.84
2023-05-06T15:52:59.353Z,22.70
2023-05-06T15:55:27.318Z,22.68
2023-05-06T15:57:55.842Z,22.62
2023-05-06T16:00:24.133Z,22.56
2023-05-06T16:02:51.938Z,22.52
2023-05-06T16:05:21.078Z,22.52
2023-05-06T16:07:49.289Z,22.51
2023-05-06T16:10:17.041Z,22.51
2023-05-06T16:12:44.956Z,22.51
2023-05-06T16:15:12.829Z,22.51
2023-05-06T16:17:40.791Z,22.48
2023-05-06T16:20:10.349Z,22.51
2023-05-06T16:22:40.896Z,22.57
2023-05-06T16:25:09.162Z,22.59
2023-05-06T16:27:36.913Z,22.60
2023-05-06T16:30:05.245Z,22.60
2023-05-06T16:32:33.087Z,22.65
2023-05-06T16:35:00.874Z,22.67
2023-05-06T16:37:29.121Z,22.71
2023-05-06T16:39:58.408Z,22.76
2023-05-06T16:42:26.118Z,22.76
2023-05-06T16:44:54.226Z,22.81
2023-05-06T16:47:24.176Z,22.83
2023-05-06T16:49:52.305Z,22.84
2023-05-06T16:52:20.720Z,22.80
2023-05-06T16:54:48.578Z,22.81
2023-05-06T16:57:17.748Z,22.77
2023-05-06T16:59:45.600Z,22.71
2023-05-06T17:02:13.379Z,22.67
2023-05-06T17:04:41.994Z,22.65
2023-05-06T17:07:11.127Z,22.57
2023-05-06T17:09:39.451Z,22.54
2023-05-06T17:12:07.896Z,22.46
2023-05-06T17:14:37.176Z,22.40
2023-05-06T17:17:05.510Z,22.34
2023-05-06T17:19:34.092Z,22.31
2023-05-06T17:22:01.838Z,22.25
2023-05-06T17:24:29.549Z,22.20
2023-05-06T17:26:57.333Z,22.17
2023-05-06T17:29:25.145Z,22.14
2023-05-06T17:31:54.389Z,22.10
2023-05-06T17:36:55.074Z,22.02
2023-05-06T17:39:22.810Z,21.97
2023-05-06T17:41:50.616Z,21.91
2023-05-06T17:44:18.493Z,21.88
2023-05-06T17:46:46.619Z,21.85
2023-05-06T17:49:15.804Z,21.81
2023-05-06T17:51:45.570Z,21.77
2023-05-06T17:54:13.487Z,21.75
2023-05-06T17:56:41.420Z,21.72
2023-05-06T17:59:09.597Z,21.68
2023-05-06T18:01:37.668Z,21.66
2023-05-06T18:04:05.810Z,21.61
2023-05-06T18:06:35.089Z,21.56
2023-05-06T18:09:03.192Z,21.53
2023-05-06T18:11:31.071Z,21.50
2023-05-06T18:13:58.809Z,21.46
2023-05-06T18:16:26.574Z,21.42
2023-05-06T18:18:54.373Z,21.38
2023-05-06T18:21:22.331Z,21.34
2023-05-06T18:23:53.590Z,21.29
2023-05-06T18:26:43.447Z,21.24
2023-05-06T18:29:12.320Z,21.16
2023-05-06T18:31:40.096Z,21.07
2023-05-06T18:34:07.979Z,21.02
2023-05-06T18:36:36.518Z,20.93
2023-05-06T18:39:06.274Z,20.85
2023-05-06T18:41:34.144Z,20.77
2023-05-06T18:44:03.298Z,20.69
2023-05-06T18:46:31.084Z,20.61
2023-05-06T18:48:59.177Z,20.53
2023-05-06T18:51:27.494Z,20.49
2023-05-06T18:53:55.344Z,20.41
2023-05-06T18:56:24.603Z,20.34
2023-05-06T18:58:52.353Z,20.30
2023-05-06T19:01:20.088Z,20.23
2023-05-06T19:03:47.881Z,20.16
2023-05-06T19:06:15.747Z,20.08
2023-05-06T19:08:43.548Z,20.03
2023-05-06T19:11:16.062Z,19.97
2023-05-06T19:13:46.287Z,19.93
2023-05-06T19:16:14.888Z,19.89
2023-05-06T19:18:42.742Z,19.84
2023-05-06T19:21:10.858Z,19.83
2023-05-06T19:23:38.703Z,19.77
2023-05-06T19:26:06.977Z,19.71
2023-05-06T19:28:35.044Z,19.63
2023-05-06T19:31:09.277Z,19.59
2023-05-06T19:33:37.254Z,19.55
2023-05-06T19:36:06.080Z,19.50
2023-05-06T19:38:34.058Z,19.46
2023-05-06T19:41:02.099Z,19.40
2023-05-06T19:43:29.855Z,19.36
2023-05-06T19:45:57.823Z,19.31
2023-05-06T19:48:26.985Z,19.25
2023-05-06T19:50:54.811Z,19.21
2023-05-06T19:53:24.108Z,19.17
2023-05-06T19:55:52.016Z,19.12
2023-05-06T19:58:19.850Z,19.08
2023-05-06T20:00:47.647Z,19.03
2023-05-06T20:03:15.628Z,18.97
2023-05-06T20:05:44.893Z,18.94
2023-05-06T20:08:12.758Z,18.91
2023-05-06T20:10:40.525Z,18.87
2023-05-06T20:13:08.352Z,18.85
2023-05-06T20:15:36.518Z,18.81
2023-05-06T20:18:04.661Z,18.75
2023-05-06T20:20:34.475Z,18.70
2023-05-06T20:23:04.209Z,18.67
2023-05-06T20:25:32.163Z,18.64
2023-05-06T20:28:00.432Z,18.58
2023-05-06T20:30:28.255Z,18.54
2023-05-06T20:32:56.286Z,18.51
2023-05-06T20:35:24.338Z,18.49
2023-05-06T20:37:52.033Z,18.45
2023-05-06T20:40:21.452Z,18.41
2023-05-06T20:42:49.296Z,18.37
2023-05-06T20:45:18.127Z,18.34
2023-05-06T20:47:45.987Z,18.31
2023-05-06T20:50:17.011Z,18.27
2023-05-06T20:52:46.070Z,18.26
2023-05-06T20:55:14.758Z,18.23
2023-05-06T20:57:47.008Z,18.19
2023-05-06T21:00:14.925Z,18.15
2023-05-06T21:02:42.792Z,18.09
2023-05-06T21:05:11.739Z,18.07
2023-05-06T21:07:39.830Z,18.02
2023-05-06T21:10:08.228Z,17.96
2023-05-06T21:12:36.032Z,17.92
2023-05-06T21:15:06.241Z,17.88
2023-05-06T21:17:34.073Z,17.81
2023-05-06T21:20:04.070Z,17.77
2023-05-06T21:22:32.701Z,17.72
2023-05-06T21:25:01.035Z,17.66
2023-05-06T21:27:28.740Z,17.62
2023-05-06T21:29:56.683Z,17.59
2023-05-06T21:32:25.938Z,17.55
2023-05-06T21:34:53.758Z,17.50
2023-05-06T21:37:21.508Z,17.49
2023-05-06T21:39:49.227Z,17.44
2023-05-06T21:42:17.019Z,17.42
2023-05-06T21:44:44.708Z,17.38
2023-05-06T21:47:12.522Z,17.30
2023-05-06T21:49:41.666Z,17.26
2023-05-06T21:52:09.403Z,17.23
2023-05-06T21:54:37.124Z,17.20
2023-05-06T21:57:07.938Z,17.18
2023-05-06T21:59:36.355Z,17.14
2023-05-06T22:02:04.358Z,17.08
2023-05-06T22:04:32.164Z,17.02
2023-05-06T22:07:01.286Z,16.98
2023-05-06T22:09:29.071Z,16.95
2023-05-06T22:11:56.789Z,16.91
2023-05-06T22:14:30.204Z,16.89
2023-05-06T22:17:01.727Z,16.86
2023-05-06T22:19:29.501Z,16.83
2023-05-06T22:21:57.757Z,16.82
2023-05-06T22:24:28.291Z,16.78
2023-05-06T22:26:56.057Z,16.72
2023-05-06T22:29:23.786Z,16.71
2023-05-06T22:31:51.596Z,16.69
2023-05-06T22:34:19.425Z,16.68
2023-05-06T22:36:47.518Z,16.66
2023-05-06T22:39:15.260Z,16.65
2023-05-06T22:41:44.617Z,16.62
2023-05-06T22:44:13.716Z,16.61
2023-05-06T22:46:41.570Z,16.58
2023-05-06T22:49:09.726Z,16.57
2023-05-06T22:51:37.560Z,16.56
2023-05-06T22:54:05.489Z,16.56
2023-05-06T22:56:33.280Z,16.53
2023-05-06T22:59:02.452Z,16.51
2023-05-06T23:01:32.093Z,16.50
2023-05-06T23:04:00.614Z,16.50
2023-05-06T23:06:28.734Z,16.48
2023-05-06T23:08:56.578Z,16.46
2023-05-06T23:11:24.404Z,16.42
2023-05-06T23:13:52.279Z,16.41
2023-05-06T23:16:21.651Z,16.40
2023-05-06T23:18:49.413Z,16.36
2023-05-06T23:21:17.063Z,16.35
2023-05-06T23:23:44.875Z,16.33
2023-05-06T23:26:12.662Z,16.33
2023-05-06T23:28:40.340Z,16.30
2023-05-06T23:31:08.153Z,16.29
2023-05-06T23:33:37.318Z,16.27
2023-05-06T23:36:05.331Z,16.27
2023-05-06T23:38:33.130Z,16.26
2023-05-06T23:41:00.847Z,16.25
2023-05-06T23:43:28.604Z,16.23
2023-05-06T23:45:56.401Z,16.20
2023-05-06T23:48:24.149Z,16.18
2023-05-06T23:50:54.483Z,16.16
2023-05-06T23:53:22.401Z,16.12
2023-05-06T23:55:50.805Z,16.10
2023-05-06T23:58:18.597Z,16.08
